Monroe, Ohio
Current Conditions -  °F | °C
As of 4:55 AM on Wednesday 26 Nov 2014 (Local Time) from KMWO Reporting Station
Overcast Overcast  
Wind Chill: 26°   Ceiling: 1500
Heat Index: 32°   Visibility: 10mi
Dew Point: 26°   Wind: 7mph
Humidity: 79%   Direction: 40°NE
Pressure: 30.14"   Gusts: NA
Location:  39.45°N, 84.35°W
Report Text: KMWO 260955Z AUTO 04006KT 10SM OVC015 00/M03 A3014 RMK AO2 T00001032
Loading
Personal Weather Stations






























Interactive Weather Map New forecast layout! Learn more

10-Day Weather Forecast

Advertisements
Track Severe Weather on mobile